createdAt,value
2018-04-14T00:00:43.545Z,1008.28
2018-04-14T00:01:43.462Z,1008.30
2018-04-14T00:02:43.385Z,1008.29
2018-04-14T00:03:43.310Z,1008.31
2018-04-14T00:04:43.230Z,1008.34
2018-04-14T00:05:43.154Z,1008.30
2018-04-14T00:06:43.077Z,1008.32
2018-04-14T00:07:42.997Z,1008.28
2018-04-14T00:08:42.920Z,1008.29
2018-04-14T00:09:42.845Z,1008.32
2018-04-14T00:10:42.762Z,1008.31
2018-04-14T00:11:42.687Z,1008.32
2018-04-14T00:12:42.610Z,1008.34
2018-04-14T00:13:42.531Z,1008.32
2018-04-14T00:14:42.453Z,1008.31
2018-04-14T00:15:42.374Z,1008.36
2018-04-14T00:16:42.292Z,1008.37
2018-04-14T00:17:42.223Z,1008.36
2018-04-14T00:18:42.143Z,1008.38
2018-04-14T00:19:42.064Z,1008.39
2018-04-14T00:20:42.009Z,1008.43
2018-04-14T00:21:41.909Z,1008.44
2018-04-14T00:22:41.835Z,1008.44
2018-04-14T00:23:41.756Z,1008.40
2018-04-14T00:24:41.676Z,1008.46
2018-04-14T00:25:41.596Z,1008.46
2018-04-14T00:26:41.525Z,1008.48
2018-04-14T00:27:41.441Z,1008.47
2018-04-14T00:28:41.363Z,1008.51
2018-04-14T00:29:41.290Z,1008.50
2018-04-14T00:30:41.207Z,1008.48
2018-04-14T00:31:41.129Z,1008.47
2018-04-14T00:32:41.051Z,1008.48
2018-04-14T00:33:40.982Z,1008.47
2018-04-14T00:34:40.911Z,1008.47
2018-04-14T00:35:40.821Z,1008.45
2018-04-14T00:36:40.741Z,1008.46
2018-04-14T00:37:40.664Z,1008.50
2018-04-14T00:38:40.585Z,1008.51
2018-04-14T00:39:40.512Z,1008.52
2018-04-14T00:40:40.429Z,1008.53
2018-04-14T00:41:40.410Z,1008.51
2018-04-14T00:42:40.275Z,1008.54
2018-04-14T00:43:40.194Z,1008.52
2018-04-14T00:44:40.116Z,1008.54
2018-04-14T00:45:40.043Z,1008.53
2018-04-14T00:46:39.964Z,1008.53
2018-04-14T00:47:39.896Z,1008.55
2018-04-14T00:48:39.805Z,1008.52
2018-04-14T00:49:39.730Z,1008.57
2018-04-14T00:50:39.650Z,1008.58
2018-04-14T00:51:39.586Z,1008.59
2018-04-14T00:52:39.496Z,1008.63
2018-04-14T00:53:39.415Z,1008.63
2018-04-14T00:54:39.339Z,1008.58
2018-04-14T00:55:39.256Z,1008.57
2018-04-14T00:56:39.182Z,1008.56
2018-04-14T00:57:39.106Z,1008.51
2018-04-14T00:58:39.027Z,1008.57
2018-04-14T00:59:38.967Z,1008.51
2018-04-14T01:00:38.870Z,1008.53
2018-04-14T01:01:38.847Z,1008.54
2018-04-14T01:02:38.716Z,1008.55
2018-04-14T01:03:38.647Z,1008.51
2018-04-14T01:04:38.561Z,1008.58
2018-04-14T01:05:38.483Z,1008.54
2018-04-14T01:06:38.408Z,1008.58
2018-04-14T01:07:38.322Z,1008.53
2018-04-14T01:08:38.249Z,1008.57
2018-04-14T01:09:38.170Z,1008.56
2018-04-14T01:10:38.090Z,1008.57
2018-04-14T01:11:38.006Z,1008.59
2018-04-14T01:12:37.938Z,1008.57
2018-04-14T01:13:37.856Z,1008.59
2018-04-14T01:14:37.785Z,1008.60
2018-04-14T01:15:37.700Z,1008.58
2018-04-14T01:16:37.622Z,1008.56
2018-04-14T01:17:37.544Z,1008.60
2018-04-14T01:18:37.468Z,1008.59
2018-04-14T01:19:37.389Z,1008.55
2018-04-14T01:20:37.308Z,1008.56
2018-04-14T01:21:37.232Z,1008.57
2018-04-14T01:22:37.155Z,1008.57
2018-04-14T01:23:37.076Z,1008.60
2018-04-14T01:24:36.994Z,1008.56
2018-04-14T01:25:36.919Z,1008.55
2018-04-14T01:26:36.846Z,1008.55
2018-04-14T01:27:36.763Z,1008.57
2018-04-14T01:28:36.685Z,1008.52
2018-04-14T01:29:36.607Z,1008.51
2018-04-14T01:30:36.525Z,1008.53
2018-04-14T01:31:36.451Z,1008.53
2018-04-14T01:32:36.373Z,1008.56
2018-04-14T01:33:36.296Z,1008.52
2018-04-14T01:34:36.218Z,1008.51
2018-04-14T01:35:36.140Z,1008.54
2018-04-14T01:36:36.056Z,1008.55
2018-04-14T01:37:35.982Z,1008.58
2018-04-14T01:38:35.905Z,1008.62
2018-04-14T01:39:35.828Z,1008.60
2018-04-14T01:40:35.747Z,1008.63
2018-04-14T01:41:35.669Z,1008.62
2018-04-14T01:42:35.592Z,1008.65
2018-04-14T01:43:35.513Z,1008.66
2018-04-14T01:44:35.434Z,1008.67
2018-04-14T01:45:35.356Z,1008.63
2018-04-14T01:46:35.279Z,1008.64
2018-04-14T01:47:35.200Z,1008.63
2018-04-14T01:48:35.123Z,1008.65
2018-04-14T01:49:35.044Z,1008.61
2018-04-14T01:50:34.968Z,1008.64
2018-04-14T01:51:34.888Z,1008.66
2018-04-14T01:52:34.805Z,1008.61
2018-04-14T01:53:34.731Z,1008.63
2018-04-14T01:54:34.653Z,1008.62
2018-04-14T01:55:34.584Z,1008.60
2018-04-14T01:56:34.497Z,1008.62
2018-04-14T01:57:34.417Z,1008.63
2018-04-14T01:58:34.344Z,1008.62
2018-04-14T01:59:34.259Z,1008.67
2018-04-14T02:00:34.183Z,1008.65
2018-04-14T02:01:34.104Z,1008.68
2018-04-14T02:02:34.026Z,1008.70
2018-04-14T02:03:33.949Z,1008.72
2018-04-14T02:04:33.875Z,1008.71
2018-04-14T02:05:33.789Z,1008.72
2018-04-14T02:06:33.713Z,1008.71
2018-04-14T02:07:33.642Z,1008.73
2018-04-14T02:08:33.557Z,1008.70
2018-04-14T02:09:33.480Z,1008.74
2018-04-14T02:10:33.400Z,1008.70
2018-04-14T02:11:33.322Z,1008.73
2018-04-14T02:12:33.243Z,1008.69
2018-04-14T02:13:33.165Z,1008.71
2018-04-14T02:14:33.089Z,1008.66
2018-04-14T02:15:33.009Z,1008.73
2018-04-14T02:16:32.930Z,1008.69
2018-04-14T02:17:32.852Z,1008.71
2018-04-14T02:18:32.776Z,1008.70
2018-04-14T02:19:32.694Z,1008.74
2018-04-14T02:20:32.617Z,1008.70
2018-04-14T02:21:32.539Z,1008.70
2018-04-14T02:22:32.459Z,1008.69
2018-04-14T02:23:32.381Z,1008.70
2018-04-14T02:24:32.303Z,1008.80
2018-04-14T02:25:32.225Z,1008.82
2018-04-14T02:26:32.146Z,1008.83
2018-04-14T02:27:32.069Z,1008.86
2018-04-14T02:28:31.986Z,1008.86
2018-04-14T02:29:31.915Z,1008.87
2018-04-14T02:30:31.836Z,1008.87
2018-04-14T02:31:31.754Z,1008.88
2018-04-14T02:32:31.714Z,1008.90
2018-04-14T02:33:31.600Z,1008.84
2018-04-14T02:34:31.518Z,1008.81
2018-04-14T02:35:31.440Z,1008.84
2018-04-14T02:36:31.360Z,1008.82
2018-04-14T02:37:31.284Z,1008.80
2018-04-14T02:38:31.205Z,1008.80
2018-04-14T02:39:31.126Z,1008.80
2018-04-14T02:40:31.047Z,1008.81
2018-04-14T02:41:30.971Z,1008.80
2018-04-14T02:42:30.891Z,1008.79
2018-04-14T02:43:30.811Z,1008.82
2018-04-14T02:44:30.734Z,1008.79
2018-04-14T02:45:30.667Z,1008.81
2018-04-14T02:46:30.575Z,1008.84
2018-04-14T02:47:30.496Z,1008.81
2018-04-14T02:48:30.437Z,1008.82
2018-04-14T02:49:30.340Z,1008.81
2018-04-14T02:50:30.263Z,1008.83
2018-04-14T02:51:30.189Z,1008.81
2018-04-14T02:52:30.101Z,1008.81
2018-04-14T02:53:30.027Z,1008.83
2018-04-14T02:54:29.948Z,1008.83
2018-04-14T02:55:29.871Z,1008.81
2018-04-14T02:56:29.790Z,1008.81
2018-04-14T02:57:29.714Z,1008.85
2018-04-14T02:58:29.632Z,1008.87
2018-04-14T02:59:29.576Z,1008.91
2018-04-14T03:00:29.476Z,1008.91
2018-04-14T03:01:29.398Z,1008.91
2018-04-14T03:02:29.326Z,1008.95
2018-04-14T03:03:29.245Z,1008.93
2018-04-14T03:04:29.158Z,1008.93
2018-04-14T03:05:29.085Z,1008.95
2018-04-14T03:06:29.006Z,1008.94
2018-04-14T03:07:28.924Z,1008.94
2018-04-14T03:08:28.845Z,1008.96
2018-04-14T03:09:28.772Z,1008.94
2018-04-14T03:10:28.690Z,1008.98
2018-04-14T03:11:28.612Z,1009.02
2018-04-14T03:12:28.538Z,1009.02
2018-04-14T03:13:28.452Z,1009.03
2018-04-14T03:14:28.375Z,1009.04
2018-04-14T03:15:28.298Z,1009.10
2018-04-14T03:16:28.219Z,1009.08
2018-04-14T03:17:28.142Z,1009.07
2018-04-14T03:18:28.073Z,1009.05
2018-04-14T03:19:27.981Z,1009.04
2018-04-14T03:20:27.920Z,1009.00
2018-04-14T03:21:27.826Z,1009.02
2018-04-14T03:22:27.742Z,1009.01
2018-04-14T03:23:27.668Z,1009.05
2018-04-14T03:24:27.587Z,1009.04
2018-04-14T03:25:27.510Z,1009.03
2018-04-14T03:26:27.431Z,1009.03
2018-04-14T03:27:27.352Z,1009.06
2018-04-14T03:28:27.272Z,1009.08
2018-04-14T03:29:27.198Z,1009.10
2018-04-14T03:30:27.114Z,1009.09
2018-04-14T03:31:27.040Z,1009.09
2018-04-14T03:32:26.959Z,1009.10
2018-04-14T03:33:26.880Z,1009.11
2018-04-14T03:34:26.802Z,1009.09
2018-04-14T03:35:26.727Z,1009.15
2018-04-14T03:36:26.643Z,1009.13
2018-04-14T03:37:26.566Z,1009.14
2018-04-14T03:38:26.486Z,1009.09
2018-04-14T03:39:26.405Z,1009.05
2018-04-14T03:40:26.328Z,1009.07
2018-04-14T03:41:26.256Z,1009.07
2018-04-14T03:42:26.171Z,1009.06
2018-04-14T03:43:26.090Z,1009.09
2018-04-14T03:44:26.010Z,1009.09
2018-04-14T03:45:25.934Z,1009.09
2018-04-14T03:46:25.855Z,1009.14
2018-04-14T03:47:25.774Z,1009.13
2018-04-14T03:48:25.700Z,1009.15
2018-04-14T03:49:25.617Z,1009.15
2018-04-14T03:50:25.537Z,1009.17
2018-04-14T03:51:25.460Z,1009.17
2018-04-14T03:52:25.381Z,1009.16
2018-04-14T03:53:25.302Z,1009.18
2018-04-14T03:54:25.232Z,1009.18
2018-04-14T03:55:25.168Z,1009.24
2018-04-14T03:56:25.066Z,1009.25
2018-04-14T03:57:24.989Z,1009.22
2018-04-14T03:58:24.904Z,1009.24
2018-04-14T03:59:24.830Z,1009.25
2018-04-14T04:00:24.749Z,1009.27
2018-04-14T04:01:24.671Z,1009.27
2018-04-14T04:02:24.593Z,1009.28
2018-04-14T04:03:24.515Z,1009.27
2018-04-14T04:04:24.431Z,1009.22
2018-04-14T04:05:24.353Z,1009.31
2018-04-14T04:06:24.276Z,1009.28
2018-04-14T04:07:24.194Z,1009.34
2018-04-14T04:08:24.115Z,1009.30
2018-04-14T04:09:24.045Z,1009.35
2018-04-14T04:10:23.957Z,1009.41
2018-04-14T04:11:23.882Z,1009.38
2018-04-14T04:12:23.801Z,1009.38
2018-04-14T04:13:23.720Z,1009.38
2018-04-14T04:14:23.645Z,1009.42
2018-04-14T04:15:23.563Z,1009.43
2018-04-14T04:16:23.530Z,1009.37
2018-04-14T04:17:23.405Z,1009.42
2018-04-14T04:18:23.327Z,1009.46
2018-04-14T04:19:23.251Z,1009.50
2018-04-14T04:20:23.169Z,1009.51
2018-04-14T04:21:23.094Z,1009.48
2018-04-14T04:22:23.011Z,1009.53
2018-04-14T04:23:22.931Z,1009.53
2018-04-14T04:24:22.851Z,1009.53
2018-04-14T04:25:22.773Z,1009.52
2018-04-14T04:26:22.695Z,1009.54
2018-04-14T04:27:22.637Z,1009.53
2018-04-14T04:28:22.536Z,1009.50
2018-04-14T04:29:22.456Z,1009.49
2018-04-14T04:30:22.379Z,1009.58
2018-04-14T04:31:22.300Z,1009.54
2018-04-14T04:32:22.220Z,1009.59
2018-04-14T04:33:22.143Z,1009.55
2018-04-14T04:34:22.063Z,1009.57
2018-04-14T04:35:21.981Z,1009.57
2018-04-14T04:36:21.906Z,1009.60
2018-04-14T04:37:21.829Z,1009.67
2018-04-14T04:38:21.751Z,1009.64
2018-04-14T04:39:21.670Z,1009.70
2018-04-14T04:40:21.585Z,1009.71
2018-04-14T04:41:21.508Z,1009.73
2018-04-14T04:42:21.433Z,1009.72
2018-04-14T04:43:21.352Z,1009.76
2018-04-14T04:44:21.284Z,1009.77
2018-04-14T04:45:21.192Z,1009.76
2018-04-14T04:46:21.152Z,1009.81
2018-04-14T04:47:21.056Z,1009.83
2018-04-14T04:48:20.955Z,1009.84
2018-04-14T04:49:20.877Z,1009.88
2018-04-14T04:50:20.796Z,1009.94
2018-04-14T04:51:20.717Z,1009.94
2018-04-14T04:52:20.640Z,1009.94
2018-04-14T04:53:20.560Z,1010.03
2018-04-14T04:54:20.481Z,1009.98
2018-04-14T04:55:20.402Z,1010.05
2018-04-14T04:56:20.323Z,1010.00
2018-04-14T04:57:20.244Z,1010.02
2018-04-14T04:58:20.166Z,1009.99
2018-04-14T04:59:20.090Z,1009.99
2018-04-14T05:00:20.006Z,1010.02
2018-04-14T05:01:19.927Z,1010.01
2018-04-14T05:02:19.849Z,1010.03
2018-04-14T05:03:19.767Z,1010.07
2018-04-14T05:04:19.688Z,1010.10
2018-04-14T05:05:19.608Z,1010.09
2018-04-14T05:06:19.532Z,1010.10
2018-04-14T05:07:19.451Z,1010.15
2018-04-14T05:08:19.370Z,1010.18
2018-04-14T05:09:19.301Z,1010.16
2018-04-14T05:10:19.280Z,1010.20
2018-04-14T05:11:19.154Z,1010.22
2018-04-14T05:12:19.053Z,1010.22
2018-04-14T05:13:18.984Z,1010.24
2018-04-14T05:14:18.897Z,1010.22
2018-04-14T05:15:18.823Z,1010.25
2018-04-14T05:16:18.738Z,1010.23
2018-04-14T05:17:18.703Z,1010.25
2018-04-14T05:18:18.603Z,1010.16
2018-04-14T05:19:18.502Z,1010.21
2018-04-14T05:20:18.447Z,1010.22
2018-04-14T05:21:18.342Z,1010.28
2018-04-14T05:22:18.263Z,1010.31
2018-04-14T05:23:18.184Z,1010.31
2018-04-14T05:24:18.104Z,1010.29
2018-04-14T05:25:18.028Z,1010.31
2018-04-14T05:26:17.950Z,1010.32
2018-04-14T05:27:17.866Z,1010.31
2018-04-14T05:28:17.788Z,1010.36
2018-04-14T05:29:17.708Z,1010.36
2018-04-14T05:30:17.630Z,1010.30
2018-04-14T05:31:17.558Z,1010.33
2018-04-14T05:32:17.471Z,1010.35
2018-04-14T05:33:17.393Z,1010.36
2018-04-14T05:34:17.313Z,1010.38
2018-04-14T05:35:17.238Z,1010.42
2018-04-14T05:36:17.157Z,1010.43
2018-04-14T05:37:17.074Z,1010.49
2018-04-14T05:38:17.024Z,1010.51
2018-04-14T05:39:16.920Z,1010.54
2018-04-14T05:40:16.838Z,1010.49
2018-04-14T05:41:16.776Z,1010.51
2018-04-14T05:42:16.679Z,1010.51
2018-04-14T05:43:16.600Z,1010.53
2018-04-14T05:44:16.521Z,1010.53
2018-04-14T05:45:16.443Z,1010.49
2018-04-14T05:46:16.369Z,1010.55
2018-04-14T05:47:16.290Z,1010.49
2018-04-14T05:48:16.206Z,1010.49
2018-04-14T05:49:16.128Z,1010.52
2018-04-14T05:50:16.048Z,1010.60
2018-04-14T05:51:15.968Z,1010.59
2018-04-14T05:52:15.890Z,1010.58
2018-04-14T05:53:15.816Z,1010.56
2018-04-14T05:54:15.733Z,1010.57
2018-04-14T05:55:15.651Z,1010.59
2018-04-14T05:56:15.573Z,1010.62
2018-04-14T05:57:15.495Z,1010.61
2018-04-14T05:58:15.417Z,1010.61
2018-04-14T05:59:15.336Z,1010.59
2018-04-14T06:00:15.266Z,1010.68
2018-04-14T06:01:15.183Z,1010.68
2018-04-14T06:02:15.102Z,1010.71
2018-04-14T06:03:15.022Z,1010.71
2018-04-14T06:04:14.944Z,1010.66
2018-04-14T06:05:14.871Z,1010.69
2018-04-14T06:06:14.787Z,1010.69
2018-04-14T06:07:14.709Z,1010.69
2018-04-14T06:08:14.630Z,1010.72
2018-04-14T06:09:14.576Z,1010.75
2018-04-14T06:10:14.474Z,1010.75
2018-04-14T06:11:14.397Z,1010.77
2018-04-14T06:12:14.315Z,1010.77
2018-04-14T06:13:14.239Z,1010.77
2018-04-14T06:14:14.161Z,1010.78
2018-04-14T06:15:14.080Z,1010.80
2018-04-14T06:16:14.001Z,1010.81
2018-04-14T06:17:13.925Z,1010.86
2018-04-14T06:18:13.846Z,1010.81
2018-04-14T06:19:13.768Z,1010.79
2018-04-14T06:20:13.691Z,1010.81
2018-04-14T06:21:13.610Z,1010.78
2018-04-14T06:22:13.544Z,1010.84
2018-04-14T06:23:13.452Z,1010.82
2018-04-14T06:24:13.374Z,1010.86
2018-04-14T06:25:13.301Z,1010.85
2018-04-14T06:26:13.224Z,1010.83
2018-04-14T06:27:13.138Z,1010.85
2018-04-14T06:28:13.153Z,1010.88
2018-04-14T06:29:12.981Z,1010.84
2018-04-14T06:30:12.904Z,1010.88
2018-04-14T06:31:12.829Z,1010.94
2018-04-14T06:32:12.748Z,1010.91
2018-04-14T06:33:12.682Z,1010.97
2018-04-14T06:34:12.596Z,1010.94
2018-04-14T06:35:12.516Z,1010.99
2018-04-14T06:36:12.433Z,1010.96
2018-04-14T06:37:12.358Z,1010.92
2018-04-14T06:38:12.278Z,1010.96
2018-04-14T06:39:12.200Z,1010.97
2018-04-14T06:40:12.122Z,1010.97
2018-04-14T06:41:12.044Z,1010.96
2018-04-14T06:42:11.969Z,1011.00
2018-04-14T06:43:11.889Z,1011.02
2018-04-14T06:44:11.809Z,1011.01
2018-04-14T06:45:11.733Z,1011.04
2018-04-14T06:46:11.659Z,1011.07
2018-04-14T06:47:11.578Z,1011.03
2018-04-14T06:48:11.500Z,1011.06
2018-04-14T06:49:11.421Z,1011.06
2018-04-14T06:50:11.373Z,1011.09
2018-04-14T06:51:11.273Z,1011.10
2018-04-14T06:52:11.198Z,1011.15
2018-04-14T06:53:11.105Z,1011.12
2018-04-14T06:54:11.042Z,1011.12
2018-04-14T06:55:10.957Z,1011.11
2018-04-14T06:56:10.878Z,1011.15
2018-04-14T06:57:10.808Z,1011.18
2018-04-14T06:58:10.726Z,1011.17
2018-04-14T06:59:10.640Z,1011.20
2018-04-14T07:00:10.573Z,1011.18
2018-04-14T07:01:10.493Z,1011.19
2018-04-14T07:02:10.415Z,1011.20
2018-04-14T07:03:10.348Z,1011.20
2018-04-14T07:04:10.259Z,1011.22
2018-04-14T07:05:10.184Z,1011.22
2018-04-14T07:06:10.103Z,1011.21
2018-04-14T07:07:10.027Z,1011.22
2018-04-14T07:08:09.951Z,1011.25
2018-04-14T07:09:09.870Z,1011.24
2018-04-14T07:10:09.797Z,1011.27
2018-04-14T07:11:09.718Z,1011.28
2018-04-14T07:12:09.638Z,1011.29
2018-04-14T07:13:09.564Z,1011.33
2018-04-14T07:14:09.488Z,1011.34
2018-04-14T07:15:09.410Z,1011.35
2018-04-14T07:16:09.344Z,1011.38
2018-04-14T07:17:09.259Z,1011.44
2018-04-14T07:18:09.179Z,1011.41
2018-04-14T07:19:09.102Z,1011.44
2018-04-14T07:20:09.024Z,1011.48
2018-04-14T07:21:08.964Z,1011.42
2018-04-14T07:22:08.877Z,1011.47
2018-04-14T07:23:08.791Z,1011.49
2018-04-14T07:24:08.718Z,1011.51
2018-04-14T07:25:08.641Z,1011.48
2018-04-14T07:26:08.565Z,1011.56
2018-04-14T07:27:08.487Z,1011.54
2018-04-14T07:28:08.416Z,1011.59
2018-04-14T07:29:08.335Z,1011.59
2018-04-14T07:30:08.260Z,1011.60
2018-04-14T07:31:08.178Z,1011.63
2018-04-14T07:32:08.103Z,1011.58
2018-04-14T07:33:08.031Z,1011.61
2018-04-14T07:34:07.953Z,1011.61
2018-04-14T07:35:07.876Z,1011.59
2018-04-14T07:36:07.799Z,1011.63
2018-04-14T07:37:07.722Z,1011.64
2018-04-14T07:38:07.650Z,1011.62
2018-04-14T07:39:07.569Z,1011.61
2018-04-14T07:40:07.494Z,1011.60
2018-04-14T07:41:07.421Z,1011.61
2018-04-14T07:42:07.341Z,1011.61
2018-04-14T07:43:07.265Z,1011.61
2018-04-14T07:44:07.190Z,1011.60
2018-04-14T07:45:07.113Z,1011.61
2018-04-14T07:46:07.039Z,1011.62
2018-04-14T07:47:06.960Z,1011.60
2018-04-14T07:48:06.885Z,1011.64
2018-04-14T07:49:06.813Z,1011.61
2018-04-14T07:50:06.733Z,1011.62
2018-04-14T07:51:06.655Z,1011.62
2018-04-14T07:52:06.581Z,1011.62
2018-04-14T07:53:06.505Z,1011.61
2018-04-14T07:54:06.437Z,1011.61
2018-04-14T07:55:06.355Z,1011.63
2018-04-14T07:56:06.278Z,1011.67
2018-04-14T07:57:06.204Z,1011.66
2018-04-14T07:58:06.125Z,1011.66
2018-04-14T07:59:06.054Z,1011.69
2018-04-14T08:00:05.990Z,1011.65
2018-04-14T08:01:05.914Z,1011.71
2018-04-14T08:02:05.828Z,1011.77
2018-04-14T08:03:05.757Z,1011.77
2018-04-14T08:04:05.679Z,1011.83
2018-04-14T08:05:05.607Z,1011.86
2018-04-14T08:06:05.535Z,1011.86
2018-04-14T08:07:05.459Z,1011.91
2018-04-14T08:08:05.382Z,1011.90
2018-04-14T08:09:05.307Z,1011.95
2018-04-14T08:10:05.232Z,1011.89
2018-04-14T08:11:05.159Z,1011.88
2018-04-14T08:12:05.085Z,1011.87
2018-04-14T08:13:05.013Z,1011.85
2018-04-14T08:14:04.939Z,1011.88
2018-04-14T08:15:04.867Z,1011.91
2018-04-14T08:16:04.791Z,1011.93
2018-04-14T08:17:04.716Z,1011.93
2018-04-14T08:18:04.642Z,1011.88
2018-04-14T08:19:04.568Z,1011.97
2018-04-14T08:20:04.495Z,1011.95
2018-04-14T08:21:04.426Z,1011.94
2018-04-14T08:22:04.350Z,1011.97
2018-04-14T08:23:04.280Z,1012.03
2018-04-14T08:24:04.260Z,1011.97
2018-04-14T08:25:04.136Z,1011.98
2018-04-14T08:26:04.060Z,1012.01
2018-04-14T08:27:03.990Z,1012.00
2018-04-14T08:28:03.913Z,1012.06
2018-04-14T08:29:03.843Z,1012.03
2018-04-14T08:30:03.817Z,1012.03
2018-04-14T08:31:03.700Z,1012.10
2018-04-14T08:32:03.630Z,1012.07
2018-04-14T08:33:03.554Z,1012.12
2018-04-14T08:34:03.486Z,1012.11
2018-04-14T08:35:03.413Z,1012.05
2018-04-14T08:36:03.346Z,1012.06
2018-04-14T08:37:03.276Z,1012.05
2018-04-14T08:38:03.198Z,1012.07
2018-04-14T08:39:03.126Z,1012.09
2018-04-14T08:40:03.059Z,1012.08
2018-04-14T08:41:02.991Z,1012.11
2018-04-14T08:42:02.915Z,1012.13
2018-04-14T08:43:02.841Z,1012.08
2018-04-14T08:44:02.790Z,1012.10
2018-04-14T08:45:02.705Z,1012.05
2018-04-14T08:46:02.631Z,1012.05
2018-04-14T08:47:02.559Z,1012.03
2018-04-14T08:48:02.490Z,1012.03
2018-04-14T08:49:02.423Z,1012.04
2018-04-14T08:50:02.345Z,1012.06
2018-04-14T08:51:02.279Z,1012.01
2018-04-14T08:52:02.205Z,1012.06
2018-04-14T08:53:02.149Z,1012.04
2018-04-14T08:54:02.092Z,1012.05
2018-04-14T08:55:01.995Z,1012.05
2018-04-14T08:56:01.925Z,1012.09
2018-04-14T08:57:01.864Z,1012.15
2018-04-14T08:58:01.787Z,1012.20
2018-04-14T08:59:01.715Z,1012.19
2018-04-14T09:00:01.646Z,1012.23
2018-04-14T09:01:01.583Z,1012.21
2018-04-14T09:02:01.522Z,1012.20
2018-04-14T09:03:01.438Z,1012.23
2018-04-14T09:04:01.371Z,1012.23
2018-04-14T09:05:01.302Z,1012.27
2018-04-14T09:06:01.247Z,1012.29
2018-04-14T09:07:01.183Z,1012.29
2018-04-14T09:08:01.098Z,1012.26
2018-04-14T09:09:01.037Z,1012.26
2018-04-14T09:10:00.966Z,1012.26
2018-04-14T09:11:00.900Z,1012.26
2018-04-14T09:12:00.828Z,1012.22
2018-04-14T09:13:00.767Z,1012.18
2018-04-14T09:14:00.699Z,1012.17
2018-04-14T09:15:00.627Z,1012.20
2018-04-14T09:16:00.567Z,1012.21
2018-04-14T09:17:00.493Z,1012.18
2018-04-14T09:18:00.428Z,1012.19
2018-04-14T09:19:00.361Z,1012.23
2018-04-14T09:20:00.294Z,1012.21
2018-04-14T09:21:00.226Z,1012.26
2018-04-14T09:22:00.163Z,1012.28
2018-04-14T09:23:00.092Z,1012.33
2018-04-14T09:24:00.023Z,1012.29
2018-04-14T09:24:59.957Z,1012.25
2018-04-14T09:25:59.890Z,1012.23
2018-04-14T09:26:59.820Z,1012.29
2018-04-14T09:27:59.753Z,1012.24
2018-04-14T09:28:59.683Z,1012.25
2018-04-14T09:29:59.615Z,1012.21
2018-04-14T09:30:59.547Z,1012.24
2018-04-14T09:31:59.480Z,1012.23
2018-04-14T09:32:59.416Z,1012.25
2018-04-14T09:33:59.345Z,1012.21
2018-04-14T09:34:59.279Z,1012.16
2018-04-14T09:35:59.213Z,1012.21
2018-04-14T09:36:59.154Z,1012.18
2018-04-14T09:37:59.085Z,1012.21
2018-04-14T09:38:59.019Z,1012.19
2018-04-14T09:39:58.952Z,1012.23
2018-04-14T09:40:58.890Z,1012.24
2018-04-14T09:41:58.824Z,1012.25
2018-04-14T09:42:58.805Z,1012.22
2018-04-14T09:43:58.693Z,1012.22
2018-04-14T09:44:58.673Z,1012.20
2018-04-14T09:45:58.568Z,1012.21
2018-04-14T09:46:58.504Z,1012.26
2018-04-14T09:47:58.443Z,1012.22
2018-04-14T09:48:58.378Z,1012.21
2018-04-14T09:49:58.321Z,1012.23
2018-04-14T09:50:58.255Z,1012.23
2018-04-14T09:51:58.244Z,1012.29
2018-04-14T09:52:58.132Z,1012.24
2018-04-14T09:53:58.071Z,1012.23
2018-04-14T09:54:58.007Z,1012.23
2018-04-14T09:55:57.952Z,1012.26
2018-04-14T09:56:57.888Z,1012.19
2018-04-14T09:57:57.828Z,1012.15
2018-04-14T09:58:57.767Z,1012.17
2018-04-14T09:59:57.708Z,1012.23
2018-04-14T10:00:57.647Z,1012.25
2018-04-14T10:01:57.595Z,1012.28
2018-04-14T10:02:57.537Z,1012.27
2018-04-14T10:03:57.468Z,1012.35
2018-04-14T10:04:57.403Z,1012.36
2018-04-14T10:05:57.342Z,1012.31
2018-04-14T10:06:57.282Z,1012.32
2018-04-14T10:07:57.223Z,1012.24
2018-04-14T10:08:57.160Z,1012.27
2018-04-14T10:09:57.097Z,1012.23
2018-04-14T10:10:57.038Z,1012.19
2018-04-14T10:11:56.981Z,1012.22
2018-04-14T10:12:56.917Z,1012.14
2018-04-14T10:13:56.857Z,1012.17
2018-04-14T10:14:56.799Z,1012.12
2018-04-14T10:15:56.738Z,1012.12
2018-04-14T10:16:56.672Z,1012.12
2018-04-14T10:17:56.618Z,1012.12
2018-04-14T10:18:56.556Z,1012.13
2018-04-14T10:19:56.495Z,1012.04
2018-04-14T10:20:56.437Z,1012.14
2018-04-14T10:21:56.381Z,1012.09
2018-04-14T10:22:56.316Z,1012.08
2018-04-14T10:23:56.255Z,1012.06
2018-04-14T10:24:56.195Z,1012.07
2018-04-14T10:25:56.134Z,1012.02
2018-04-14T10:26:56.072Z,1012.03
2018-04-14T10:27:56.012Z,1011.98
2018-04-14T10:28:56.039Z,1011.96
2018-04-14T10:29:55.893Z,1011.98
2018-04-14T10:30:55.831Z,1011.94
2018-04-14T10:31:55.775Z,1011.97
2018-04-14T10:32:55.710Z,1011.98
2018-04-14T10:33:55.650Z,1011.95
2018-04-14T10:34:55.591Z,1011.95
2018-04-14T10:35:55.529Z,1011.93
2018-04-14T10:36:55.470Z,1011.93
2018-04-14T10:37:55.533Z,1011.89
2018-04-14T10:38:55.349Z,1011.96
2018-04-14T10:39:55.288Z,1011.94
2018-04-14T10:40:55.233Z,1011.92
2018-04-14T10:41:55.168Z,1011.92
2018-04-14T10:42:55.104Z,1011.90
2018-04-14T10:43:55.055Z,1011.90
2018-04-14T10:44:54.983Z,1011.86
2018-04-14T10:45:54.917Z,1011.80
2018-04-14T10:46:54.864Z,1011.84
2018-04-14T10:47:54.813Z,1011.87
2018-04-14T10:48:54.732Z,1011.85
2018-04-14T10:49:54.722Z,1011.89
2018-04-14T10:50:54.616Z,1011.84
2018-04-14T10:51:54.555Z,1011.85
2018-04-14T10:52:54.490Z,1011.80
2018-04-14T10:53:54.436Z,1011.85
2018-04-14T10:54:54.362Z,1011.83
2018-04-14T10:55:54.303Z,1011.87
2018-04-14T10:56:54.240Z,1011.85
2018-04-14T10:57:54.182Z,1011.79
2018-04-14T10:58:54.114Z,1011.84
2018-04-14T10:59:54.050Z,1011.93
2018-04-14T11:00:53.989Z,1011.85
2018-04-14T11:01:53.926Z,1011.87
2018-04-14T11:02:53.863Z,1011.87
2018-04-14T11:03:53.851Z,1011.92
2018-04-14T11:04:53.737Z,1011.84
2018-04-14T11:05:53.684Z,1011.85
2018-04-14T11:06:53.608Z,1011.86
2018-04-14T11:07:53.551Z,1011.85
2018-04-14T11:08:53.487Z,1011.78
2018-04-14T11:09:53.432Z,1011.77
2018-04-14T11:10:53.372Z,1011.81
2018-04-14T11:11:53.300Z,1011.87
2018-04-14T11:12:53.240Z,1011.88
2018-04-14T11:13:53.176Z,1011.92
2018-04-14T11:14:53.115Z,1011.85
2018-04-14T11:15:53.060Z,1011.74
2018-04-14T11:16:52.988Z,1011.74
2018-04-14T11:17:52.926Z,1011.81
2018-04-14T11:18:52.863Z,1011.83
2018-04-14T11:19:52.802Z,1011.84
2018-04-14T11:20:52.737Z,1011.87
2018-04-14T11:21:52.673Z,1011.89
2018-04-14T11:22:52.604Z,1011.96
2018-04-14T11:23:52.547Z,1011.99
2018-04-14T11:24:52.485Z,1011.92
2018-04-14T11:25:52.423Z,1011.74
2018-04-14T11:26:52.359Z,1011.74
2018-04-14T11:27:52.301Z,1011.93
2018-04-14T11:28:52.288Z,1011.89
2018-04-14T11:29:52.173Z,1011.89
2018-04-14T11:30:52.110Z,1011.69
2018-04-14T11:31:52.049Z,1011.84
2018-04-14T11:32:51.989Z,1011.86
2018-04-14T11:33:51.926Z,1011.87
2018-04-14T11:34:51.863Z,1011.86
2018-04-14T11:35:51.803Z,1011.91
2018-04-14T11:36:51.737Z,1011.94
2018-04-14T11:37:51.682Z,1011.97
2018-04-14T11:38:51.622Z,1011.98
2018-04-14T11:39:51.558Z,1011.93
2018-04-14T11:40:51.494Z,1011.92
2018-04-14T11:41:51.437Z,1011.98
2018-04-14T11:42:51.383Z,1011.98
2018-04-14T11:43:51.352Z,1011.89
2018-04-14T11:44:51.256Z,1011.74
2018-04-14T11:45:51.199Z,1011.74
2018-04-14T11:46:51.136Z,1011.89
2018-04-14T11:47:51.080Z,1011.96
2018-04-14T11:48:51.015Z,1011.83
2018-04-14T11:49:50.958Z,1011.87
2018-04-14T11:50:50.896Z,1011.85
2018-04-14T11:51:50.835Z,1011.93
2018-04-14T11:52:50.779Z,1011.87
2018-04-14T11:53:50.712Z,1011.90
2018-04-14T11:54:50.650Z,1011.95
2018-04-14T11:55:50.590Z,1011.97
2018-04-14T11:56:50.527Z,1011.96
2018-04-14T11:57:50.464Z,1011.95
2018-04-14T11:58:50.403Z,1011.84
2018-04-14T11:59:50.341Z,1011.86
2018-04-14T12:00:50.279Z,1011.88
2018-04-14T12:01:50.220Z,1011.81
2018-04-14T12:02:50.155Z,1011.83
2018-04-14T12:03:50.093Z,1011.83
2018-04-14T12:04:50.030Z,1011.77